24°C Temp
10°C Dewpoint
41% Humidity
Temperature
37 KM/H
23 MPH
20 KTS
340°
North North
West

Wind Speed
Partly Cloudy
Conditions
Pressure 1011.92 (hPa) - 29.88 (in)
Visibility 6.2 (mi) - 10.0 (km)

Current Conditions
LEPA
Location 15(km)
Metar :LEPA 250800Z 34020G32KT 300V010 9999 FEW020 24/10 Q1012 NOSIG
Fri 25th September 09:00 am

Airport
  Metar Aviation API Data Provided by https://www.checkwx.com/ PHP scripts by weather34.com ©2020